Wila, Pennsylvania
Current Conditions -  °F | °C
As of 5:56 AM on Thursday 27 Nov 2014 (Local Time) from KCXY Reporting Station
Overcast Overcast  
Wind Chill: 29°   Ceiling: 7000
Heat Index: 34°   Visibility: 10mi
Dew Point: 28°   Wind: 6mph
Humidity: 79%   Direction: 290°WNW
Pressure: 30"   Gusts: NA
Location:  40.4932°N, 77.217°W
Report Text: KCXY 271056Z AUTO 29005KT 10SM OVC070 01/M02 A3000 RMK AO2 SLP164 T00111022
Loading
Personal Weather Stations






























Interactive Weather Map New forecast layout! Learn more

10-Day Weather Forecast

Advertisements
Track Severe Weather on mobile